createdAt,value
2019-01-08T01:52:05.290Z,99630.92
2019-01-08T01:54:33.715Z,99637.28
2019-01-08T01:57:01.220Z,99623.53
2019-01-08T01:59:28.693Z,99632.53
2019-01-08T02:01:56.145Z,99623.13
2019-01-08T02:04:23.608Z,99621.48
2019-01-08T02:06:51.225Z,99626.19
2019-01-08T02:09:19.768Z,99631.71
2019-01-08T02:11:47.287Z,99629.36
2019-01-08T02:14:14.742Z,99636.72
2019-01-08T02:16:42.208Z,99628.22
2019-01-08T02:19:09.747Z,99627.39
2019-01-08T02:21:37.230Z,99632.77
2019-01-08T02:24:04.746Z,99633.41
2019-01-08T02:26:32.206Z,99635.42
2019-01-08T02:28:59.733Z,99624.38
2019-01-08T02:31:27.212Z,99632.34
2019-01-08T02:33:54.674Z,99620.80
2019-01-08T02:36:22.161Z,99637.35
2019-01-08T02:38:49.684Z,99633.74
2019-01-08T02:41:17.257Z,99624.03
2019-01-08T02:43:44.623Z,99623.30
2019-01-08T02:46:12.501Z,99627.22
2019-01-08T02:48:39.903Z,99623.75
2019-01-08T02:51:07.351Z,99613.17
2019-01-08T02:53:34.805Z,99604.84
2019-01-08T02:56:02.255Z,99602.45
2019-01-08T02:58:30.636Z,99605.27
2019-01-08T03:00:58.211Z,99592.55
2019-01-08T03:03:25.659Z,99594.73
2019-01-08T03:05:53.115Z,99602.91
2019-01-08T03:08:20.574Z,99594.23
2019-01-08T03:10:49.015Z,99588.55
2019-01-08T03:13:16.534Z,99594.50
2019-01-08T03:15:43.999Z,99578.88
2019-01-08T03:18:11.473Z,99578.22
2019-01-08T03:20:38.971Z,99571.71
2019-01-08T03:23:06.419Z,99564.30
2019-01-08T03:25:34.123Z,99569.73
2019-01-08T03:28:01.598Z,99566.35
2019-01-08T03:30:29.062Z,99570.09
2019-01-08T03:32:56.493Z,99567.63
2019-01-08T03:35:23.985Z,99556.42
2019-01-08T03:37:51.479Z,99554.20
2019-01-08T03:40:18.942Z,99556.55
2019-01-08T03:42:46.410Z,99538.44
2019-01-08T03:45:13.872Z,99544.37
2019-01-08T03:47:41.420Z,99538.88
2019-01-08T03:50:09.524Z,99526.92
2019-01-08T03:52:36.985Z,99525.66
2019-01-08T03:55:04.466Z,99524.81
2019-01-08T03:57:31.911Z,99520.34
2019-01-08T03:59:59.393Z,99534.86
2019-01-08T04:02:26.867Z,99512.93
2019-01-08T04:04:54.329Z,99520.24
2019-01-08T04:07:21.803Z,99506.14
2019-01-08T04:09:49.254Z,99493.86
2019-01-08T04:12:16.695Z,99494.52
2019-01-08T04:14:44.190Z,99494.73
2019-01-08T04:17:11.672Z,99489.25
2019-01-08T04:19:39.163Z,99491.00
2019-01-08T04:22:06.613Z,99493.84
2019-01-08T04:24:34.589Z,99489.98
2019-01-08T04:27:02.004Z,99481.79
2019-01-08T04:29:29.470Z,99483.84
2019-01-08T04:31:56.934Z,99489.02
2019-01-08T04:34:24.416Z,99476.48
2019-01-08T04:36:51.880Z,99478.44
2019-01-08T04:39:19.322Z,99454.63
2019-01-08T04:41:46.835Z,99457.02
2019-01-08T04:44:14.330Z,99452.33
2019-01-08T04:46:41.825Z,99438.91
2019-01-08T04:49:09.310Z,99442.46
2019-01-08T04:51:36.828Z,99439.86
2019-01-08T04:54:04.798Z,99431.80
2019-01-08T04:56:32.264Z,99422.61
2019-01-08T04:58:59.748Z,99414.98
2019-01-08T05:01:27.279Z,99425.86
2019-01-08T05:03:54.712Z,99410.11
2019-01-08T05:06:23.165Z,99410.72
2019-01-08T05:08:50.763Z,99405.47
2019-01-08T05:11:18.263Z,99398.41
2019-01-08T05:13:45.705Z,99403.52
2019-01-08T05:16:13.566Z,99395.94
2019-01-08T05:18:41.015Z,99389.75
2019-01-08T05:21:08.485Z,99375.87
2019-01-08T05:23:35.932Z,99374.66
2019-01-08T05:26:03.394Z,99357.70
2019-01-08T05:28:30.904Z,99367.27
2019-01-08T05:30:58.401Z,99367.33
2019-01-08T05:33:25.917Z,99364.52
2019-01-08T05:35:53.410Z,99357.78
2019-01-08T05:38:20.882Z,99362.05
2019-01-08T05:40:48.341Z,99349.84
2019-01-08T05:43:15.815Z,99376.48
2019-01-08T05:45:43.337Z,99375.50
2019-01-08T05:48:10.796Z,99356.24
2019-01-08T05:50:38.270Z,99350.14
2019-01-08T05:53:05.741Z,99343.05
2019-01-08T05:55:33.201Z,99352.02
2019-01-08T05:58:00.632Z,99345.69
2019-01-08T06:00:28.122Z,99342.96
2019-01-08T06:02:55.563Z,99334.97
2019-01-08T06:05:23.015Z,99339.13
2019-01-08T06:07:50.491Z,99342.13
2019-01-08T06:10:17.954Z,99328.45
2019-01-08T06:12:45.446Z,99330.72
2019-01-08T06:15:13.801Z,99344.14
2019-01-08T06:17:41.545Z,99331.09
2019-01-08T06:20:09.044Z,99345.34
2019-01-08T06:22:36.497Z,99338.34
2019-01-08T06:25:04.147Z,99325.59
2019-01-08T06:27:31.651Z,99329.91
2019-01-08T06:29:59.752Z,99327.80
2019-01-08T06:32:27.188Z,99322.80
2019-01-08T06:34:54.671Z,99336.84
2019-01-08T06:37:22.132Z,99338.49
2019-01-08T06:39:49.568Z,99347.38
2019-01-08T06:42:17.711Z,99328.80
2019-01-08T06:44:46.515Z,99349.30
2019-01-08T06:47:18.466Z,99362.45
2019-01-08T06:49:57.798Z,99360.52
2019-01-08T06:52:25.338Z,99351.13
2019-01-08T06:54:52.829Z,99360.08
2019-01-08T06:57:20.281Z,99346.08
2019-01-08T06:59:48.573Z,99354.19
2019-01-08T07:02:16.154Z,99343.27
2019-01-08T07:04:43.579Z,99343.96
2019-01-08T07:07:11.032Z,99341.02
2019-01-08T07:09:39.052Z,99341.16
2019-01-08T07:12:07.027Z,99338.53
2019-01-08T07:14:34.521Z,99343.18
2019-01-08T07:17:02.002Z,99341.90
2019-01-08T07:19:30.599Z,99327.73
2019-01-08T07:21:58.733Z,99319.66
2019-01-08T07:24:26.863Z,99338.07
2019-01-08T07:26:57.558Z,99332.95
2019-01-08T07:29:25.539Z,99326.31
2019-01-08T07:31:55.454Z,99326.84
2019-01-08T07:34:24.605Z,99319.25
2019-01-08T07:36:52.966Z,99320.78
2019-01-08T07:39:21.446Z,99326.25
2019-01-08T07:41:48.958Z,99331.20
2019-01-08T07:44:16.483Z,99319.40
2019-01-08T07:46:45.042Z,99305.05
2019-01-08T07:49:16.002Z,99303.81
2019-01-08T07:51:43.877Z,99309.80
2019-01-08T07:54:12.148Z,99306.98
2019-01-08T07:56:41.109Z,99311.55
2019-01-08T07:59:08.655Z,99303.33
2019-01-08T08:01:37.638Z,99308.34
2019-01-08T08:04:05.465Z,99293.90
2019-01-08T08:06:33.021Z,99301.06
2019-01-08T08:09:00.551Z,99299.48
2019-01-08T08:11:29.893Z,99297.70
2019-01-08T08:13:58.773Z,99285.73
2019-01-08T08:16:26.831Z,99284.84
2019-01-08T08:18:55.145Z,99275.95
2019-01-08T08:21:23.937Z,99277.42
2019-01-08T08:23:51.570Z,99261.94
2019-01-08T08:26:19.963Z,99263.92
2019-01-08T08:28:48.708Z,99274.61
2019-01-08T08:31:16.279Z,99262.86
2019-01-08T08:33:43.785Z,99242.34
2019-01-08T08:36:11.366Z,99250.62
2019-01-08T08:38:41.846Z,99247.41
2019-01-08T08:41:10.333Z,99241.38
2019-01-08T08:43:39.169Z,99248.34
2019-01-08T08:46:07.867Z,99248.74
2019-01-08T08:48:37.000Z,99245.28
2019-01-08T08:51:05.390Z,99239.23
2019-01-08T08:53:33.307Z,99250.78
2019-01-08T08:56:00.888Z,99236.59
2019-01-08T08:58:31.326Z,99248.91
2019-01-08T09:01:06.682Z,99236.73
2019-01-08T09:03:29.063Z,99250.77
2019-01-08T09:05:56.903Z,99238.60
2019-01-08T09:08:24.751Z,99254.84
2019-01-08T09:10:53.681Z,99253.27
2019-01-08T09:13:22.259Z,99255.16
2019-01-08T09:15:50.024Z,99246.11
2019-01-08T09:18:18.523Z,99241.09
2019-01-08T09:20:50.995Z,99249.20
2019-01-08T09:23:20.076Z,99246.30
2019-01-08T09:25:49.900Z,99272.98
2019-01-08T09:28:17.497Z,99249.92
2019-01-08T09:30:47.153Z,99266.39
2019-01-08T09:33:16.120Z,99259.37
2019-01-08T09:35:48.057Z,99248.89
2019-01-08T09:38:15.897Z,99264.19
2019-01-08T09:40:43.345Z,99256.51
2019-01-08T09:43:11.759Z,99258.11
2019-01-08T09:45:41.947Z,99276.39
2019-01-08T09:48:10.778Z,99261.37
2019-01-08T09:50:49.894Z,99260.52
2019-01-08T09:53:20.534Z,99264.16
2019-01-08T09:55:55.209Z,99254.58
2019-01-08T09:58:23.997Z,99260.86
2019-01-08T10:00:57.338Z,99263.61
2019-01-08T10:03:32.571Z,99271.35
2019-01-08T10:06:03.683Z,99245.05
2019-01-08T10:08:32.533Z,99272.13
2019-01-08T10:11:10.078Z,99263.63
2019-01-08T10:13:44.392Z,99254.87
2019-01-08T10:16:12.013Z,99244.23
2019-01-08T10:18:42.776Z,99246.09
2019-01-08T10:21:11.888Z,99241.13
2019-01-08T10:23:39.505Z,99247.00
2019-01-08T10:26:07.870Z,99240.55
2019-01-08T10:28:35.467Z,99226.91
2019-01-08T10:31:03.038Z,99220.72
2019-01-08T10:33:32.126Z,99234.97
2019-01-08T10:36:01.655Z,99242.01
2019-01-08T10:38:29.840Z,99233.22
2019-01-08T10:40:59.257Z,99225.28
2019-01-08T10:43:28.024Z,99228.34
2019-01-08T10:45:59.134Z,99235.03
2019-01-08T10:48:27.210Z,99228.01
2019-01-08T10:50:56.850Z,99224.83
2019-01-08T10:53:25.150Z,99230.97
2019-01-08T10:55:52.744Z,99227.55
2019-01-08T10:58:20.688Z,99219.66
2019-01-08T11:00:48.581Z,99223.18
2019-01-08T11:03:16.300Z,99222.70
2019-01-08T11:05:43.791Z,99220.30
2019-01-08T11:08:12.438Z,99221.63
2019-01-08T11:10:40.066Z,99220.74
2019-01-08T11:15:42.224Z,99218.49
2019-01-08T11:18:11.107Z,99207.92
2019-01-08T11:20:39.773Z,99219.09
2019-01-08T11:23:10.112Z,99233.46
2019-01-08T11:25:45.901Z,99247.75
2019-01-08T11:28:14.803Z,99218.61
2019-01-08T11:30:43.130Z,99216.34
2019-01-08T11:33:11.794Z,99214.06
2019-01-08T11:35:42.370Z,99208.58
2019-01-08T11:38:10.414Z,99201.35
2019-01-08T11:40:39.156Z,99199.50
2019-01-08T11:43:08.057Z,99200.78
2019-01-08T11:45:36.559Z,99202.08
2019-01-08T11:48:04.869Z,99202.44
2019-01-08T11:50:40.353Z,99193.94
2019-01-08T11:53:12.392Z,99200.17
2019-01-08T11:55:40.535Z,99220.47
2019-01-08T11:58:12.551Z,99208.20
2019-01-08T12:00:44.059Z,99194.75
2019-01-08T12:03:13.159Z,99192.98
2019-01-08T12:05:45.611Z,99190.66
2019-01-08T12:08:14.807Z,99195.58
2019-01-08T12:10:44.380Z,99188.13
2019-01-08T12:13:14.308Z,99194.69
2019-01-08T12:15:44.907Z,99186.76
2019-01-08T12:18:13.735Z,99189.91
2019-01-08T12:20:41.559Z,99179.86
2019-01-08T12:23:09.836Z,99175.41
2019-01-08T12:25:40.174Z,99182.30
2019-01-08T12:28:09.987Z,99176.50
2019-01-08T12:30:38.210Z,99179.58
2019-01-08T12:33:07.753Z,99184.34
2019-01-08T12:35:35.847Z,99184.34
2019-01-08T12:38:03.444Z,99178.20
2019-01-08T12:40:30.986Z,99180.97
2019-01-08T12:43:02.122Z,99183.17
2019-01-08T12:45:29.879Z,99174.95
2019-01-08T12:48:01.332Z,99168.41
2019-01-08T12:50:29.863Z,99175.38
2019-01-08T12:53:00.554Z,99180.17
2019-01-08T12:55:28.012Z,99158.23
2019-01-08T12:57:55.639Z,99167.73
2019-01-08T13:00:24.438Z,99165.03
2019-01-08T13:02:51.996Z,99166.12
2019-01-08T13:05:20.248Z,99176.44
2019-01-08T13:07:50.332Z,99159.87
2019-01-08T13:10:20.458Z,99175.36
2019-01-08T13:12:48.099Z,99158.26
2019-01-08T13:15:16.355Z,99179.91
2019-01-08T13:17:44.150Z,99186.73
2019-01-08T13:20:12.122Z,99178.17
2019-01-08T13:22:45.233Z,99172.61
2019-01-08T13:25:14.480Z,99175.45
2019-01-08T13:27:47.516Z,99160.61
2019-01-08T13:30:19.372Z,99178.18
2019-01-08T13:32:48.135Z,99174.09
2019-01-08T13:35:17.280Z,99177.00
2019-01-08T13:37:46.109Z,99170.80
2019-01-08T13:40:13.800Z,99178.83
2019-01-08T13:42:43.104Z,99159.91
2019-01-08T13:45:17.765Z,99164.63
2019-01-08T13:47:46.756Z,99169.90
2019-01-08T13:50:16.481Z,99156.80
2019-01-08T13:52:47.074Z,99183.90
2019-01-08T13:55:16.018Z,99176.63
2019-01-08T13:57:45.867Z,99168.16
2019-01-08T14:00:14.085Z,99206.66
2019-01-08T14:02:43.991Z,99195.95
2019-01-08T14:05:11.889Z,99198.03
2019-01-08T14:07:39.899Z,99202.53
2019-01-08T14:10:07.585Z,99220.95
2019-01-08T14:12:37.779Z,99209.52
2019-01-08T14:15:06.131Z,99209.28
2019-01-08T14:17:35.107Z,99217.03
2019-01-08T14:20:02.793Z,99206.50
2019-01-08T14:22:31.359Z,99209.75
2019-01-08T14:24:59.250Z,99206.31
2019-01-08T14:27:27.475Z,99210.70
2019-01-08T14:29:55.386Z,99215.15
2019-01-08T14:32:24.006Z,99218.99
2019-01-08T14:34:51.882Z,99210.28
2019-01-08T14:37:19.947Z,99204.68
2019-01-08T14:39:52.167Z,99222.80
2019-01-08T14:42:21.921Z,99216.23
2019-01-08T14:44:49.647Z,99210.06
2019-01-08T14:47:18.143Z,99207.53
2019-01-08T14:49:47.171Z,99223.02
2019-01-08T14:52:15.437Z,99230.66
2019-01-08T14:54:42.939Z,99269.45
2019-01-08T14:57:11.278Z,99233.08
2019-01-08T14:59:39.234Z,99263.09
2019-01-08T15:02:09.792Z,99271.47
2019-01-08T15:04:37.275Z,99279.11
2019-01-08T15:07:06.910Z,99269.14
2019-01-08T15:09:34.721Z,99270.00
2019-01-08T15:12:03.473Z,99258.85
2019-01-08T15:14:31.958Z,99284.34
2019-01-08T15:17:04.440Z,99276.06
2019-01-08T15:19:34.154Z,99274.23
2019-01-08T15:22:01.711Z,99273.80
2019-01-08T15:24:29.257Z,99272.81
2019-01-08T15:26:57.591Z,99278.60
2019-01-08T15:29:26.590Z,99274.52
2019-01-08T15:31:55.252Z,99281.41
2019-01-08T15:34:22.836Z,99281.72
2019-01-08T15:36:51.479Z,99289.69
2019-01-08T15:39:19.919Z,99276.22
2019-01-08T15:41:47.421Z,99273.12
2019-01-08T15:44:15.483Z,99269.05
2019-01-08T15:46:42.735Z,99272.89
2019-01-08T15:49:11.265Z,99270.74
2019-01-08T15:51:39.463Z,99266.39
2019-01-08T15:54:06.930Z,99267.80
2019-01-08T15:56:34.539Z,99271.20
2019-01-08T15:59:02.058Z,99277.83
2019-01-08T16:01:29.617Z,99254.00
2019-01-08T16:03:57.122Z,99266.09
2019-01-08T16:06:24.606Z,99260.77
2019-01-08T16:08:53.013Z,99264.27
2019-01-08T16:11:20.769Z,99275.91
2019-01-08T16:13:48.296Z,99269.59
2019-01-08T16:16:16.924Z,99263.80
2019-01-08T16:18:47.660Z,99247.98
2019-01-08T16:21:15.435Z,99253.83
2019-01-08T16:23:42.943Z,99249.73
2019-01-08T16:26:12.215Z,99247.28
2019-01-08T16:28:40.749Z,99237.21
2019-01-08T16:31:08.368Z,99255.45
2019-01-08T16:33:36.981Z,99252.66
2019-01-08T16:36:04.590Z,99254.08
2019-01-08T16:38:32.174Z,99251.82
2019-01-08T16:40:59.686Z,99239.13
2019-01-08T16:43:27.810Z,99245.38
2019-01-08T16:45:55.295Z,99232.79
2019-01-08T16:48:22.770Z,99235.59
2019-01-08T16:50:50.369Z,99253.59
2019-01-08T16:53:18.614Z,99253.00
2019-01-08T16:55:46.187Z,99269.66
2019-01-08T16:58:13.751Z,99284.64
2019-01-08T17:00:41.690Z,99309.05
2019-01-08T17:03:09.203Z,99299.23
2019-01-08T17:05:37.318Z,99334.41
2019-01-08T17:08:04.793Z,99297.16
2019-01-08T17:10:33.133Z,99292.86
2019-01-08T17:13:00.617Z,99288.63
2019-01-08T17:15:28.095Z,99278.42
2019-01-08T17:17:55.573Z,99285.42
2019-01-08T17:20:23.093Z,99282.34
2019-01-08T17:22:50.657Z,99296.30
2019-01-08T17:25:18.159Z,99288.20
2019-01-08T17:27:45.698Z,99266.80
2019-01-08T17:30:13.242Z,99272.25
2019-01-08T17:32:40.697Z,99267.97
2019-01-08T17:35:08.340Z,99262.41
2019-01-08T17:37:35.965Z,99264.88
2019-01-08T17:40:04.820Z,99262.01
2019-01-08T17:42:32.543Z,99269.54
2019-01-08T17:45:00.014Z,99269.52
2019-01-08T17:47:28.085Z,99267.68
2019-01-08T17:49:56.219Z,99263.49
2019-01-08T17:52:23.781Z,99270.52
2019-01-08T17:54:51.896Z,99265.88
2019-01-08T17:57:19.446Z,99272.75
2019-01-08T17:59:46.957Z,99280.03
2019-01-08T18:02:15.596Z,99290.97
2019-01-08T18:04:43.163Z,99300.95
2019-01-08T18:07:11.745Z,99280.11
2019-01-08T18:09:39.235Z,99294.78
2019-01-08T18:12:06.817Z,99296.02
2019-01-08T18:14:34.855Z,99294.06
2019-01-08T18:17:03.444Z,99288.22
2019-01-08T18:19:30.985Z,99296.33
2019-01-08T18:21:58.537Z,99299.95
2019-01-08T18:24:26.049Z,99278.39
2019-01-08T18:26:53.587Z,99291.55
2019-01-08T18:29:21.043Z,99286.62
2019-01-08T18:31:48.540Z,99279.37
2019-01-08T18:34:16.156Z,99286.47
2019-01-08T18:36:43.649Z,99280.36
2019-01-08T18:39:11.147Z,99286.22
2019-01-08T18:41:39.583Z,99290.24
2019-01-08T18:44:07.078Z,99291.08
2019-01-08T18:46:34.531Z,99287.20
2019-01-08T18:49:02.950Z,99288.83
2019-01-08T18:51:30.472Z,99294.67
2019-01-08T18:53:57.943Z,99295.01
2019-01-08T18:56:25.399Z,99285.27
2019-01-08T18:58:52.929Z,99291.57
2019-01-08T19:01:20.374Z,99302.22
2019-01-08T19:03:47.894Z,99317.65
2019-01-08T19:06:15.358Z,99318.11
2019-01-08T19:08:54.475Z,99305.27
2019-01-08T19:11:21.949Z,99320.86
2019-01-08T19:13:49.432Z,99330.54
2019-01-08T19:16:16.859Z,99337.13
2019-01-08T19:18:44.310Z,99341.95
2019-01-08T19:21:11.797Z,99339.66
2019-01-08T19:23:39.271Z,99343.38
2019-01-08T19:26:11.882Z,99333.39
2019-01-08T19:28:39.346Z,99335.70
2019-01-08T19:31:09.774Z,99339.02
2019-01-08T19:33:35.496Z,99326.33
2019-01-08T19:36:02.976Z,99317.59
2019-01-08T19:38:31.680Z,99310.28
2019-01-08T19:40:59.287Z,99315.44
2019-01-08T19:43:27.315Z,99321.71
2019-01-08T19:45:54.854Z,99334.34
2019-01-08T19:48:22.345Z,99323.34
2019-01-08T19:50:49.795Z,99332.16
2019-01-08T19:53:17.270Z,99331.04
2019-01-08T19:55:45.818Z,99350.69
2019-01-08T19:58:13.289Z,99347.30
2019-01-08T20:00:41.733Z,99338.69
2019-01-08T20:03:09.196Z,99333.25
2019-01-08T20:05:36.661Z,99334.26
2019-01-08T20:08:04.136Z,99341.05
2019-01-08T20:10:31.626Z,99339.33
2019-01-08T20:12:59.145Z,99346.52
2019-01-08T20:15:26.749Z,99329.25
2019-01-08T20:17:54.202Z,99317.16
2019-01-08T20:20:21.714Z,99331.54
2019-01-08T20:22:49.156Z,99342.34
2019-01-08T20:25:16.663Z,99338.34
2019-01-08T20:27:44.140Z,99332.67
2019-01-08T20:30:11.644Z,99334.95
2019-01-08T20:32:39.118Z,99332.86
2019-01-08T20:35:06.587Z,99339.20
2019-01-08T20:37:34.097Z,99335.88
2019-01-08T20:40:03.046Z,99342.95
2019-01-08T20:42:30.595Z,99348.25
2019-01-08T20:44:58.035Z,99332.93
2019-01-08T20:47:25.628Z,99324.71
2019-01-08T20:49:53.122Z,99324.94
2019-01-08T20:52:20.559Z,99335.54
2019-01-08T20:54:48.012Z,99328.28
2019-01-08T20:57:15.537Z,99335.85
2019-01-08T20:59:43.020Z,99342.70
2019-01-08T21:02:11.353Z,99334.08
2019-01-08T21:04:38.954Z,99350.63
2019-01-08T21:07:07.406Z,99330.86
2019-01-08T21:09:36.687Z,99335.60
2019-01-08T21:12:04.786Z,99327.09
2019-01-08T21:14:32.300Z,99318.86
2019-01-08T21:16:59.825Z,99323.30
2019-01-08T21:19:27.280Z,99314.34
2019-01-08T21:21:54.717Z,99321.33
2019-01-08T21:24:28.395Z,99309.18
2019-01-08T21:26:49.620Z,99317.78
2019-01-08T21:29:17.085Z,99303.43
2019-01-08T21:31:44.634Z,99310.81
2019-01-08T21:34:12.090Z,99319.28
2019-01-08T21:36:39.559Z,99326.02
2019-01-08T21:39:07.028Z,99331.30
2019-01-08T21:41:34.535Z,99335.73
2019-01-08T21:44:01.996Z,99325.06
2019-01-08T21:46:29.483Z,99335.05
2019-01-08T21:48:57.949Z,99333.55
2019-01-08T21:51:25.566Z,99341.88
2019-01-08T21:53:53.013Z,99334.98
2019-01-08T21:56:20.490Z,99326.09
2019-01-08T21:58:47.963Z,99329.07
2019-01-08T22:01:15.456Z,99328.84
2019-01-08T22:03:42.916Z,99317.14
2019-01-08T22:06:10.359Z,99327.86
2019-01-08T22:08:37.812Z,99321.09
2019-01-08T22:11:05.254Z,99335.18
2019-01-08T22:13:32.813Z,99319.30
2019-01-08T22:16:00.296Z,99321.64
2019-01-08T22:18:27.757Z,99320.09
2019-01-08T22:20:55.227Z,99326.75
2019-01-08T22:23:22.671Z,99321.34
2019-01-08T22:25:50.163Z,99328.59
2019-01-08T22:28:17.658Z,99309.68
2019-01-08T22:30:45.093Z,99321.05
2019-01-08T22:33:12.538Z,99315.19
2019-01-08T22:35:41.148Z,99302.06
2019-01-08T22:38:08.615Z,99313.87
2019-01-08T22:40:36.094Z,99319.80
2019-01-08T22:43:04.472Z,99313.79
2019-01-08T22:45:31.982Z,99317.84
2019-01-08T22:48:01.394Z,99314.56
2019-01-08T22:50:29.693Z,99304.84
2019-01-08T22:52:57.134Z,99304.61
2019-01-08T22:55:24.564Z,99310.22
2019-01-08T22:57:52.162Z,99309.38
2019-01-08T23:00:25.332Z,99310.91
2019-01-08T23:02:52.823Z,99310.65
2019-01-08T23:05:20.271Z,99318.78
2019-01-08T23:07:47.734Z,99318.28
2019-01-08T23:10:15.182Z,99307.53
2019-01-08T23:12:43.588Z,99308.20
2019-01-08T23:15:11.074Z,99318.05
2019-01-08T23:17:39.718Z,99312.38
2019-01-08T23:20:07.291Z,99308.75
2019-01-08T23:22:34.831Z,99307.66
2019-01-08T23:25:02.260Z,99303.95
2019-01-08T23:27:33.147Z,99303.29
2019-01-08T23:30:00.584Z,99296.20
2019-01-08T23:32:28.034Z,99306.25
2019-01-08T23:34:55.578Z,99305.20
2019-01-08T23:37:23.019Z,99300.47
2019-01-08T23:39:50.467Z,99302.61
2019-01-08T23:42:17.946Z,99301.26
2019-01-08T23:44:46.371Z,99299.84
2019-01-08T23:47:14.014Z,99291.34
2019-01-08T23:49:41.413Z,99293.08
2019-01-08T23:52:08.841Z,99296.62
2019-01-08T23:54:37.226Z,99299.17
2019-01-08T23:57:05.800Z,99312.56
2019-01-08T23:59:33.314Z,99303.55
